createdAt,value
2022-12-13T00:01:27.830Z,-0.01
2022-12-13T00:03:56.438Z,-0.03
2022-12-13T00:06:25.201Z,-0.00
2022-12-13T00:08:52.412Z,0.06
2022-12-13T00:11:19.220Z,-0.06
2022-12-13T00:13:47.259Z,-0.19
2022-12-13T00:16:16.885Z,-0.28
2022-12-13T00:18:46.658Z,-0.29
2022-12-13T00:21:16.313Z,-0.28
2022-12-13T00:23:43.051Z,-0.26
2022-12-13T00:26:13.555Z,-0.31
2022-12-13T00:28:41.315Z,-0.29
2022-12-13T00:31:51.678Z,-0.27
2022-12-13T00:33:55.764Z,-0.25
2022-12-13T00:36:22.158Z,-0.31
2022-12-13T00:38:59.641Z,-0.40
2022-12-13T00:41:29.580Z,-0.52
2022-12-13T00:43:56.411Z,-0.55
2022-12-13T00:46:23.328Z,-0.55
2022-12-13T00:48:51.757Z,-0.56
2022-12-13T00:51:19.880Z,-0.64
2022-12-13T00:53:46.204Z,-0.64
2022-12-13T00:56:15.139Z,-0.75
2022-12-13T00:58:41.598Z,-0.81
2022-12-13T01:01:14.203Z,-0.99
2022-12-13T01:03:42.136Z,-1.11
2022-12-13T01:06:15.893Z,-1.09
2022-12-13T01:08:43.699Z,-1.10
2022-12-13T01:11:10.899Z,-1.07
2022-12-13T01:13:37.949Z,-1.11
2022-12-13T01:16:09.108Z,-1.18
2022-12-13T01:18:36.540Z,-1.24
2022-12-13T01:21:10.523Z,-1.24
2022-12-13T01:23:37.361Z,-1.38
2022-12-13T01:26:06.286Z,-1.43
2022-12-13T01:28:32.957Z,-1.47
2022-12-13T01:31:02.419Z,-1.50
2022-12-13T01:33:29.805Z,-1.45
2022-12-13T01:36:00.349Z,-1.55
2022-12-13T01:38:27.080Z,-1.46
2022-12-13T01:41:03.019Z,-1.25
2022-12-13T01:43:44.143Z,-1.14
2022-12-13T01:46:11.565Z,-1.45
2022-12-13T01:48:45.619Z,-1.27
2022-12-13T01:51:16.713Z,-1.19
2022-12-13T01:53:45.701Z,-1.13
2022-12-13T01:56:22.445Z,-1.07
2022-12-13T01:58:52.503Z,-1.01
2022-12-13T02:01:19.882Z,-0.99
2022-12-13T02:03:46.230Z,-1.04
2022-12-13T02:06:16.925Z,-0.95
2022-12-13T02:08:46.132Z,-0.92
2022-12-13T02:11:13.467Z,-0.93
2022-12-13T02:13:41.563Z,-0.86
2022-12-13T02:16:25.188Z,-0.94
2022-12-13T02:20:04.483Z,-1.04
2022-12-13T02:23:24.310Z,-0.99
2022-12-13T02:26:08.057Z,-0.91
2022-12-13T02:29:30.010Z,-0.77
2022-12-13T02:31:57.527Z,-0.68
2022-12-13T02:34:38.233Z,-0.68
2022-12-13T02:37:18.552Z,-0.77
2022-12-13T02:39:57.800Z,-0.86
2022-12-13T02:42:34.373Z,-0.79
2022-12-13T02:45:20.535Z,-0.83
2022-12-13T02:47:51.920Z,-0.57
2022-12-13T02:50:19.958Z,-0.40
2022-12-13T02:52:46.638Z,-0.45
2022-12-13T02:55:16.041Z,-0.48
2022-12-13T02:57:44.685Z,-0.44
2022-12-13T03:00:18.468Z,-0.29
2022-12-13T03:03:20.898Z,-0.25
2022-12-13T03:06:23.338Z,-0.26
2022-12-13T03:09:19.791Z,-0.30
2022-12-13T03:12:23.487Z,-0.34
2022-12-13T03:15:20.468Z,-0.54
2022-12-13T03:17:58.605Z,-0.73
2022-12-13T03:20:27.808Z,-0.66
2022-12-13T03:22:55.465Z,-0.46
2022-12-13T03:25:30.986Z,-0.53
2022-12-13T03:28:01.344Z,-0.48
2022-12-13T03:30:31.124Z,-0.45
2022-12-13T03:32:57.725Z,-0.39
2022-12-13T03:35:24.732Z,-0.40
2022-12-13T03:38:01.791Z,-0.43
2022-12-13T03:40:29.477Z,-0.37
2022-12-13T03:42:55.785Z,-0.35
2022-12-13T03:45:22.126Z,-0.31
2022-12-13T03:47:48.488Z,-0.29
2022-12-13T03:50:27.073Z,-0.42
2022-12-13T03:53:01.119Z,-0.36
2022-12-13T03:55:28.135Z,-0.41
2022-12-13T03:57:55.213Z,-0.48
2022-12-13T04:00:21.921Z,-0.45
2022-12-13T04:02:48.435Z,-0.42
2022-12-13T04:05:15.411Z,-0.45
2022-12-13T04:07:48.081Z,-0.41
2022-12-13T04:10:25.952Z,-0.26
2022-12-13T04:13:12.310Z,-0.39
2022-12-13T04:15:38.929Z,-0.26
2022-12-13T04:18:06.084Z,-0.33
2022-12-13T04:20:32.434Z,-0.36
2022-12-13T04:22:58.731Z,-0.39
2022-12-13T04:25:27.084Z,-0.31
2022-12-13T04:27:53.622Z,-0.32
2022-12-13T04:30:20.347Z,-0.31
2022-12-13T04:32:46.659Z,-0.28
2022-12-13T04:35:14.082Z,-0.33
2022-12-13T04:37:43.429Z,-0.17
2022-12-13T04:40:10.995Z,-0.17
2022-12-13T04:42:37.440Z,-0.22
2022-12-13T04:45:07.545Z,-0.32
2022-12-13T04:47:34.052Z,-0.28
2022-12-13T04:50:00.426Z,-0.25
2022-12-13T04:52:26.881Z,-0.34
2022-12-13T04:54:55.538Z,-0.41
2022-12-13T04:57:23.246Z,-0.37
2022-12-13T04:59:49.904Z,-0.38
2022-12-13T05:02:23.453Z,-0.46
2022-12-13T05:04:53.603Z,-0.42
2022-12-13T05:07:22.844Z,-0.34
2022-12-13T05:09:49.372Z,-0.27
2022-12-13T05:12:23.277Z,-0.35
2022-12-13T05:14:51.213Z,-0.29
2022-12-13T05:17:17.666Z,-0.29
2022-12-13T05:19:44.044Z,-0.20
2022-12-13T05:22:19.403Z,-0.29
2022-12-13T05:24:48.115Z,-0.41
2022-12-13T05:27:24.569Z,-0.41
2022-12-13T05:30:03.173Z,-0.35
2022-12-13T05:32:43.330Z,-0.33
2022-12-13T05:35:23.068Z,-0.34
2022-12-13T05:37:53.414Z,-0.41
2022-12-13T05:40:28.821Z,-0.36
2022-12-13T05:43:01.465Z,-0.45
2022-12-13T05:45:30.787Z,-0.52
2022-12-13T05:47:58.001Z,-0.40
2022-12-13T05:50:25.041Z,-0.47
2022-12-13T05:52:51.967Z,-0.31
2022-12-13T05:55:19.543Z,-0.32
2022-12-13T05:57:50.675Z,-0.42
2022-12-13T06:00:28.808Z,-0.37
2022-12-13T06:03:00.913Z,-0.41
2022-12-13T06:05:29.574Z,-0.37
2022-12-13T06:07:58.158Z,-0.16
2022-12-13T06:10:34.721Z,-0.28
2022-12-13T06:13:21.626Z,-0.24
2022-12-13T06:16:01.349Z,0.02
2022-12-13T06:18:36.423Z,0.00
2022-12-13T06:21:07.006Z,-0.06
2022-12-13T06:23:37.877Z,0.12
2022-12-13T06:26:07.232Z,0.14
2022-12-13T06:28:35.097Z,0.10
2022-12-13T06:31:04.994Z,0.10
2022-12-13T06:33:35.903Z,-0.12
2022-12-13T06:36:04.464Z,0.13
2022-12-13T06:38:33.190Z,0.10
2022-12-13T06:41:12.201Z,0.10
2022-12-13T06:43:44.437Z,0.05
2022-12-13T06:46:11.910Z,0.01
2022-12-13T06:48:41.929Z,0.08
2022-12-13T06:51:08.899Z,0.09
2022-12-13T06:53:43.212Z,0.10
2022-12-13T06:56:12.305Z,0.15
2022-12-13T06:58:40.154Z,0.09
2022-12-13T07:01:14.634Z,-0.03
2022-12-13T07:03:57.672Z,0.04
2022-12-13T07:06:25.448Z,-0.21
2022-12-13T07:08:55.215Z,-0.08
2022-12-13T07:11:27.302Z,0.13
2022-12-13T07:13:54.164Z,0.37
2022-12-13T07:16:22.211Z,0.33
2022-12-13T07:18:54.498Z,0.26
2022-12-13T07:21:29.749Z,0.19
2022-12-13T07:23:57.004Z,0.00
2022-12-13T07:26:24.416Z,-0.09
2022-12-13T07:28:55.071Z,-0.02
2022-12-13T07:31:24.834Z,0.02
2022-12-13T07:33:51.881Z,0.01
2022-12-13T07:36:23.170Z,0.07
2022-12-13T07:38:54.779Z,-0.08
2022-12-13T07:41:25.497Z,-0.04
2022-12-13T07:43:55.832Z,0.01
2022-12-13T07:46:33.032Z,0.08
2022-12-13T07:49:02.275Z,-0.02
2022-12-13T07:51:28.849Z,0.13
2022-12-13T07:53:55.503Z,0.11
2022-12-13T07:56:22.249Z,0.31
2022-12-13T07:58:48.620Z,0.35
2022-12-13T08:01:14.934Z,0.36
2022-12-13T08:03:42.083Z,0.16
2022-12-13T08:06:10.618Z,0.35
2022-12-13T08:08:38.735Z,0.21
2022-12-13T08:11:07.886Z,0.15
2022-12-13T08:13:35.642Z,0.18
2022-12-13T08:16:05.756Z,0.25
2022-12-13T08:18:53.104Z,0.22
2022-12-13T08:21:54.741Z,0.25
2022-12-13T08:24:24.500Z,0.32
2022-12-13T08:26:56.961Z,0.39
2022-12-13T08:29:34.104Z,0.44
2022-12-13T08:32:04.663Z,0.59
2022-12-13T08:34:31.243Z,0.60
2022-12-13T08:37:02.949Z,0.70
2022-12-13T08:39:34.230Z,0.73
2022-12-13T08:42:16.606Z,0.70
2022-12-13T08:44:50.196Z,0.79
2022-12-13T08:47:24.460Z,0.81
2022-12-13T08:50:01.265Z,0.88
2022-12-13T08:52:30.833Z,0.81
2022-12-13T08:54:57.553Z,0.70
2022-12-13T08:57:23.913Z,0.62
2022-12-13T08:59:50.612Z,0.85
2022-12-13T09:02:17.505Z,0.88
2022-12-13T09:04:44.377Z,0.97
2022-12-13T09:07:11.806Z,0.91
2022-12-13T09:09:38.699Z,0.82
2022-12-13T09:12:10.293Z,0.75
2022-12-13T09:14:45.672Z,0.76
2022-12-13T09:17:24.929Z,0.75
2022-12-13T09:19:58.531Z,0.85
2022-12-13T09:22:33.271Z,0.62
2022-12-13T09:25:03.115Z,0.62
2022-12-13T09:27:30.865Z,0.60
2022-12-13T09:30:12.404Z,0.60
2022-12-13T09:32:40.643Z,0.78
2022-12-13T09:35:08.862Z,0.94
2022-12-13T09:37:39.866Z,1.02
2022-12-13T09:40:29.443Z,1.04
2022-12-13T09:43:12.254Z,0.96
2022-12-13T09:45:45.658Z,0.82
2022-12-13T09:48:22.540Z,0.74
2022-12-13T09:50:58.472Z,1.03
2022-12-13T09:53:39.830Z,1.05
2022-12-13T09:56:14.618Z,1.07
2022-12-13T09:58:41.631Z,1.03
2022-12-13T10:01:11.946Z,1.28
2022-12-13T10:03:43.544Z,1.16
2022-12-13T10:06:22.738Z,1.14
2022-12-13T10:08:58.720Z,1.09
2022-12-13T10:11:32.571Z,1.05
2022-12-13T10:14:08.128Z,1.04
2022-12-13T10:16:35.867Z,1.20
2022-12-13T10:19:29.317Z,1.19
2022-12-13T10:22:01.837Z,1.23
2022-12-13T10:24:47.949Z,1.18
2022-12-13T10:27:18.639Z,1.36
2022-12-13T10:30:29.012Z,1.49
2022-12-13T10:32:59.349Z,1.61
2022-12-13T10:35:26.035Z,1.48
2022-12-13T10:37:54.105Z,1.49
2022-12-13T10:40:52.989Z,1.38
2022-12-13T10:43:21.992Z,1.40
2022-12-13T10:45:56.621Z,1.50
2022-12-13T10:48:38.139Z,1.62
2022-12-13T10:51:12.931Z,1.40
2022-12-13T10:53:48.273Z,1.33
2022-12-13T10:56:23.219Z,1.39
2022-12-13T10:59:11.861Z,1.48
2022-12-13T11:01:43.190Z,1.25
2022-12-13T11:04:27.834Z,1.33
2022-12-13T11:06:57.037Z,1.22
2022-12-13T11:09:38.699Z,1.32
2022-12-13T11:12:14.646Z,1.42
2022-12-13T11:14:53.530Z,1.42
2022-12-13T11:17:26.237Z,1.46
2022-12-13T11:19:58.658Z,1.69
2022-12-13T11:22:28.663Z,1.78
2022-12-13T11:25:01.044Z,1.65
2022-12-13T11:27:56.981Z,1.59
2022-12-13T11:30:31.440Z,1.74
2022-12-13T11:33:01.725Z,1.49
2022-12-13T11:35:48.572Z,1.46
2022-12-13T11:38:25.865Z,1.44
2022-12-13T11:40:59.836Z,1.61
2022-12-13T11:43:38.662Z,1.69
2022-12-13T11:46:17.273Z,1.68
2022-12-13T11:48:53.232Z,1.64
2022-12-13T11:51:33.734Z,1.79
2022-12-13T11:54:14.320Z,1.79
2022-12-13T11:57:00.320Z,1.72
2022-12-13T11:59:42.295Z,1.75
2022-12-13T12:02:17.535Z,1.79
2022-12-13T12:04:53.617Z,1.76
2022-12-13T12:08:12.592Z,1.78
2022-12-13T12:10:45.707Z,1.77
2022-12-13T12:13:21.928Z,1.78
2022-12-13T12:16:02.235Z,1.74
2022-12-13T12:18:29.692Z,1.76
2022-12-13T12:21:18.855Z,1.73
2022-12-13T12:23:55.444Z,1.90
2022-12-13T12:26:42.447Z,1.83
2022-12-13T12:29:36.957Z,1.72
2022-12-13T12:32:30.104Z,1.68
2022-12-13T12:35:07.826Z,1.57
2022-12-13T12:37:51.262Z,1.62
2022-12-13T12:41:16.717Z,1.81
2022-12-13T12:43:54.001Z,1.59
2022-12-13T12:47:08.945Z,1.65
2022-12-13T12:49:48.259Z,1.59
2022-12-13T12:52:26.959Z,1.70
2022-12-13T12:55:31.494Z,1.70
2022-12-13T12:58:25.749Z,1.69
2022-12-13T13:01:15.686Z,1.72
2022-12-13T13:03:46.979Z,1.78
2022-12-13T13:06:13.502Z,2.00
2022-12-13T13:08:55.946Z,1.93
2022-12-13T13:11:26.104Z,1.60
2022-12-13T13:14:25.057Z,1.54
2022-12-13T13:16:53.287Z,1.78
2022-12-13T13:19:25.643Z,1.80
2022-12-13T13:22:01.671Z,1.64
2022-12-13T13:24:31.931Z,1.73
2022-12-13T13:27:11.115Z,1.72
2022-12-13T13:29:43.979Z,1.76
2022-12-13T13:32:11.484Z,1.58
2022-12-13T13:34:45.057Z,1.64
2022-12-13T13:37:22.989Z,1.51
2022-12-13T13:40:12.487Z,1.50
2022-12-13T13:42:56.688Z,1.35
2022-12-13T13:45:27.786Z,1.49
2022-12-13T13:47:58.940Z,1.44
2022-12-13T13:50:44.484Z,1.51
2022-12-13T13:53:41.338Z,1.51
2022-12-13T13:56:51.550Z,1.39
2022-12-13T14:00:11.395Z,1.39
2022-12-13T14:03:41.941Z,1.37
2022-12-13T14:06:42.624Z,1.35
2022-12-13T14:09:53.048Z,1.36
2022-12-13T14:12:57.431Z,1.37
2022-12-13T14:16:09.483Z,1.40
2022-12-13T14:18:44.940Z,1.31
2022-12-13T14:21:42.604Z,1.42
2022-12-13T14:24:39.812Z,1.39
2022-12-13T14:27:34.153Z,1.33
2022-12-13T14:30:01.867Z,1.38
2022-12-13T14:32:50.819Z,1.39
2022-12-13T14:35:26.994Z,1.39
2022-12-13T14:38:05.641Z,1.34
2022-12-13T14:40:46.658Z,1.37
2022-12-13T14:43:28.695Z,1.44
2022-12-13T14:45:57.938Z,1.50
2022-12-13T14:48:28.002Z,1.53
2022-12-13T14:50:56.984Z,1.59
2022-12-13T14:53:28.856Z,1.63
2022-12-13T14:56:10.037Z,1.65
2022-12-13T14:58:51.722Z,1.76
2022-12-13T15:01:30.048Z,1.67
2022-12-13T15:04:25.802Z,1.60
2022-12-13T15:07:14.739Z,1.47
2022-12-13T15:09:47.654Z,1.36
2022-12-13T15:12:25.440Z,1.47
2022-12-13T15:15:02.249Z,1.38
2022-12-13T15:17:34.467Z,1.33
2022-12-13T15:20:30.688Z,1.29
2022-12-13T15:23:15.245Z,1.32
2022-12-13T15:25:45.109Z,1.39
2022-12-13T15:28:21.242Z,1.38
2022-12-13T15:31:00.217Z,1.37
2022-12-13T15:33:35.219Z,1.43
2022-12-13T15:36:24.919Z,1.42
2022-12-13T15:38:56.165Z,1.32
2022-12-13T15:41:37.891Z,1.26
2022-12-13T15:44:17.089Z,1.14
2022-12-13T15:46:45.557Z,1.06
2022-12-13T15:49:26.746Z,1.12
2022-12-13T15:52:11.466Z,1.07
2022-12-13T15:54:39.359Z,0.90
2022-12-13T15:57:15.308Z,0.86
2022-12-13T15:59:43.450Z,0.78
2022-12-13T16:02:16.929Z,0.69
2022-12-13T16:04:44.947Z,0.61
2022-12-13T16:07:29.516Z,0.59
2022-12-13T16:09:57.359Z,0.62
2022-12-13T16:12:35.881Z,0.62
2022-12-13T16:15:32.560Z,0.54
2022-12-13T16:18:07.521Z,0.49
2022-12-13T16:20:34.459Z,0.46
2022-12-13T16:23:08.962Z,0.43
2022-12-13T16:25:36.307Z,0.42
2022-12-13T16:28:03.606Z,0.42
2022-12-13T16:30:52.377Z,0.39
2022-12-13T16:33:26.977Z,0.36
2022-12-13T16:35:57.890Z,0.33
2022-12-13T16:38:27.857Z,0.30
2022-12-13T16:40:59.185Z,0.32
2022-12-13T16:43:33.467Z,0.38
2022-12-13T16:47:14.281Z,0.43
2022-12-13T16:49:02.593Z,0.42
2022-12-13T16:51:36.415Z,0.39
2022-12-13T16:54:03.088Z,0.35
2022-12-13T16:56:30.328Z,0.30
2022-12-13T16:58:58.822Z,0.26
2022-12-13T17:01:27.853Z,0.22
2022-12-13T17:03:54.670Z,0.08
2022-12-13T17:06:24.279Z,-0.09
2022-12-13T17:08:51.697Z,-0.09
2022-12-13T17:11:18.757Z,-0.11
2022-12-13T17:13:47.730Z,-0.09
2022-12-13T17:16:15.642Z,-0.10
2022-12-13T17:18:42.719Z,-0.12
2022-12-13T17:21:10.113Z,-0.18
2022-12-13T17:23:36.967Z,-0.26
2022-12-13T17:26:07.438Z,-0.37
2022-12-13T17:28:34.938Z,-0.47
2022-12-13T17:31:14.099Z,-0.45
2022-12-13T17:33:42.142Z,-0.45
2022-12-13T17:36:11.478Z,-0.45
2022-12-13T17:38:45.016Z,-0.56
2022-12-13T17:41:14.084Z,-0.66
2022-12-13T17:43:48.646Z,-0.73
2022-12-13T17:46:18.415Z,-0.76
2022-12-13T17:48:47.034Z,-0.72
2022-12-13T17:51:20.079Z,-0.77
2022-12-13T17:53:57.126Z,-0.93
2022-12-13T17:56:34.394Z,-0.95
2022-12-13T17:59:09.746Z,-0.97
2022-12-13T18:01:38.036Z,-0.98
2022-12-13T18:04:05.342Z,-1.00
2022-12-13T18:06:32.522Z,-0.97
2022-12-13T18:09:06.177Z,-1.05
2022-12-13T18:11:35.643Z,-1.14
2022-12-13T18:14:05.482Z,-1.19
2022-12-13T18:16:37.416Z,-1.30
2022-12-13T18:19:09.103Z,-1.37
2022-12-13T18:21:39.716Z,-1.45
2022-12-13T18:24:07.672Z,-1.52
2022-12-13T18:26:34.590Z,-1.57
2022-12-13T18:29:02.598Z,-1.57
2022-12-13T18:31:31.653Z,-1.67
2022-12-13T18:34:00.447Z,-1.73
2022-12-13T18:36:34.896Z,-1.79
2022-12-13T18:39:02.340Z,-1.89
2022-12-13T18:41:32.258Z,-1.94
2022-12-13T18:44:08.405Z,-2.01
2022-12-13T18:46:37.567Z,-2.01
2022-12-13T18:49:07.098Z,-1.98
2022-12-13T18:51:37.522Z,-2.04
2022-12-13T18:54:05.316Z,-2.15
2022-12-13T18:56:33.361Z,-2.17
2022-12-13T18:59:03.126Z,-2.19
2022-12-13T19:01:35.291Z,-2.17
2022-12-13T19:04:03.452Z,-2.17
2022-12-13T19:06:34.208Z,-2.19
2022-12-13T19:09:04.681Z,-2.23
2022-12-13T19:11:33.818Z,-2.33
2022-12-13T19:14:01.895Z,-2.49
2022-12-13T19:16:29.571Z,-2.58
2022-12-13T19:18:58.109Z,-2.66
2022-12-13T19:21:26.909Z,-2.72
2022-12-13T19:23:57.954Z,-2.78
2022-12-13T19:26:28.991Z,-2.86
2022-12-13T19:28:58.891Z,-2.94
2022-12-13T19:31:31.698Z,-3.00
2022-12-13T19:34:04.852Z,-3.08
2022-12-13T19:36:32.743Z,-3.09
2022-12-13T19:39:01.069Z,-3.11
2022-12-13T19:41:29.261Z,-3.18
2022-12-13T19:43:56.803Z,-3.26
2022-12-13T19:46:25.260Z,-3.35
2022-12-13T19:48:53.522Z,-3.42
2022-12-13T19:51:25.574Z,-3.48
2022-12-13T19:53:53.004Z,-3.55
2022-12-13T19:56:21.504Z,-3.56
2022-12-13T19:58:50.115Z,-3.66
2022-12-13T20:01:18.755Z,-3.71
2022-12-13T20:03:47.866Z,-3.74
2022-12-13T20:06:20.179Z,-3.74
2022-12-13T20:08:48.377Z,-3.79
2022-12-13T20:11:22.077Z,-3.82
2022-12-13T20:13:52.697Z,-3.85
2022-12-13T20:16:23.144Z,-3.86
2022-12-13T20:18:58.864Z,-3.89
2022-12-13T20:21:27.547Z,-3.93
2022-12-13T20:23:59.711Z,-3.94
2022-12-13T20:26:38.664Z,-4.04
2022-12-13T20:29:16.438Z,-4.12
2022-12-13T20:31:48.858Z,-4.14
2022-12-13T20:34:18.235Z,-4.16
2022-12-13T20:36:45.825Z,-4.21
2022-12-13T20:39:14.447Z,-4.25
2022-12-13T20:41:41.726Z,-4.29
2022-12-13T20:44:12.139Z,-4.33
2022-12-13T20:46:39.974Z,-4.34
2022-12-13T20:49:09.375Z,-4.35
2022-12-13T20:51:39.159Z,-4.33
2022-12-13T20:54:11.153Z,-4.34
2022-12-13T20:56:40.469Z,-4.42
2022-12-13T20:59:11.806Z,-4.46
2022-12-13T21:01:40.531Z,-4.51
2022-12-13T21:04:11.106Z,-4.52
2022-12-13T21:06:40.464Z,-4.54
2022-12-13T21:09:09.393Z,-4.57
2022-12-13T21:11:39.431Z,-4.68
2022-12-13T21:14:20.751Z,-4.73
2022-12-13T21:16:52.699Z,-4.76
2022-12-13T21:19:23.912Z,-4.85
2022-12-13T21:21:52.215Z,-4.87
2022-12-13T21:24:21.184Z,-4.94
2022-12-13T21:26:49.134Z,-5.00
2022-12-13T21:29:16.810Z,-5.02
2022-12-13T21:31:48.523Z,-5.06
2022-12-13T21:34:17.880Z,-5.06
2022-12-13T21:36:47.295Z,-5.09
2022-12-13T21:39:19.196Z,-5.16
2022-12-13T21:41:45.770Z,-5.18
2022-12-13T21:44:14.991Z,-5.15
2022-12-13T21:49:29.903Z,-5.17
2022-12-13T21:51:56.710Z,-5.19
2022-12-13T21:54:23.742Z,-5.23
2022-12-13T21:57:09.560Z,-5.26
2022-12-13T21:59:36.380Z,-5.26
2022-12-13T22:02:12.868Z,-5.23
2022-12-13T22:04:53.234Z,-5.23
2022-12-13T22:07:29.853Z,-5.25
2022-12-13T22:10:01.333Z,-5.24
2022-12-13T22:12:44.248Z,-5.23
2022-12-13T22:15:13.011Z,-5.23
2022-12-13T22:17:40.811Z,-5.22
2022-12-13T22:20:11.823Z,-5.19
2022-12-13T22:22:41.230Z,-5.12
2022-12-13T22:25:09.063Z,-5.07
2022-12-13T22:27:36.330Z,-5.09
2022-12-13T22:30:03.681Z,-5.06
2022-12-13T22:32:31.659Z,-5.04
2022-12-13T22:34:58.427Z,-5.04
2022-12-13T22:37:25.132Z,-5.09
2022-12-13T22:39:51.648Z,-5.21
2022-12-13T22:42:19.474Z,-5.22
2022-12-13T22:44:45.987Z,-5.22
2022-12-13T22:47:12.797Z,-5.26
2022-12-13T22:49:40.186Z,-5.33
2022-12-13T22:52:07.796Z,-5.38
2022-12-13T22:54:35.170Z,-5.40
2022-12-13T22:57:02.402Z,-5.43
2022-12-13T22:59:29.086Z,-5.41
2022-12-13T23:02:01.629Z,-5.46
2022-12-13T23:04:29.519Z,-5.54
2022-12-13T23:06:57.229Z,-5.58
2022-12-13T23:09:27.024Z,-5.55
2022-12-13T23:12:12.993Z,-5.46
2022-12-13T23:14:40.181Z,-5.50
2022-12-13T23:17:06.949Z,-5.52
2022-12-13T23:19:50.703Z,-5.62
2022-12-13T23:22:24.980Z,-5.69
2022-12-13T23:24:52.194Z,-5.70
2022-12-13T23:27:20.680Z,-5.68
2022-12-13T23:29:47.054Z,-5.68
2022-12-13T23:32:14.480Z,-5.62
2022-12-13T23:34:41.609Z,-5.57
2022-12-13T23:37:08.072Z,-5.61
2022-12-13T23:39:34.346Z,-5.67
2022-12-13T23:42:00.695Z,-5.73
2022-12-13T23:44:27.116Z,-5.71
2022-12-13T23:46:54.548Z,-5.68
2022-12-13T23:49:20.919Z,-5.66
2022-12-13T23:51:47.227Z,-5.67
2022-12-13T23:54:17.018Z,-5.77
2022-12-13T23:56:43.427Z,-5.79
2022-12-13T23:59:10.467Z,-5.78
